Time;durP1;ratioP1;P1;durP2;ratioP2;P2;SDS_P1;SDS_P2;PMS_P1;PMS_P2;Temp;Humidity;BMP_temperature;BMP_pressure;BME280_temperature;BME280_humidity;BME280_pressure;Samples;Min_cycle;Max_cycle;Signal;HPM_P1;HPM_P2
2023/08/05 00:00:07;;;;;;;10.32;2.40;;;;;;;15.91;85.20;100641.13;4814590;29;20118;-79
2023/08/05 00:03:11;;;;;;;7.78;1.80;;;;;;;15.87;85.35;100637.03;4823486;29;20061;-79
2023/08/05 00:06:14;;;;;;;5.85;1.73;;;;;;;15.75;85.17;100637.91;4832213;29;20099;-79
2023/08/05 00:09:18;;;;;;;11.18;2.28;;;;;;;15.69;85.66;100641.84;4832249;29;20532;-78
2023/08/05 00:12:21;;;;;;;10.05;2.13;;;;;;;15.63;86.23;100636.97;4831396;29;20041;-78
2023/08/05 00:15:25;;;;;;;5.43;1.65;;;;;;;15.58;86.13;100631.19;4833354;29;20112;-78
2023/08/05 00:18:28;;;;;;;8.13;1.80;;;;;;;15.53;86.28;100638.56;4832981;29;20103;-78
2023/08/05 00:21:31;;;;;;;10.25;2.05;;;;;;;15.52;86.10;100634.28;4833059;29;20652;-78
2023/08/05 00:24:35;;;;;;;5.18;1.73;;;;;;;15.52;85.94;100647.44;4829657;29;20108;-79
2023/08/05 00:27:38;;;;;;;3.97;1.60;;;;;;;15.51;86.16;100649.25;4830144;29;20057;-79
2023/08/05 00:30:42;;;;;;;5.15;1.75;;;;;;;15.49;85.82;100640.59;4832239;29;20053;-78
2023/08/05 00:33:45;;;;;;;8.43;1.92;;;;;;;15.43;86.12;100641.03;4833202;29;20061;-78
2023/08/05 00:36:49;;;;;;;8.45;2.22;;;;;;;15.37;86.21;100641.47;4831508;29;20127;-79
2023/08/05 00:39:52;;;;;;;5.57;2.20;;;;;;;15.36;86.27;100650.31;4833543;29;20467;-79
2023/08/05 00:42:56;;;;;;;8.52;2.00;;;;;;;15.32;86.21;100644.44;4829541;29;20056;-79
2023/08/05 00:46:00;;;;;;;3.90;1.65;;;;;;;15.28;85.96;100642.97;4830579;29;20049;-78
2023/08/05 00:49:04;;;;;;;8.10;2.72;;;;;;;15.23;86.03;100638.97;4829608;29;20176;-79
2023/08/05 00:52:08;;;;;;;5.63;2.05;;;;;;;15.17;86.08;100649.94;4822940;29;20589;-79
2023/08/05 00:55:11;;;;;;;7.07;1.80;;;;;;;15.10;86.33;100652.97;4822864;29;20117;-77
2023/08/05 00:58:15;;;;;;;4.40;1.95;;;;;;;15.06;86.28;100648.88;4822393;29;20580;-78
2023/08/05 01:01:18;;;;;;;3.83;1.98;;;;;;;15.02;86.28;100652.66;4822007;29;20180;-78
2023/08/05 01:04:22;;;;;;;7.90;2.15;;;;;;;15.00;86.56;100657.19;4805919;29;20131;-80
2023/08/05 01:07:27;;;;;;;11.82;2.10;;;;;;;15.00;86.54;100664.25;4814343;29;20053;-79
2023/08/05 01:10:30;;;;;;;6.10;2.22;;;;;;;14.93;86.35;100668.25;4794170;29;20540;-79
2023/08/05 01:13:36;;;;;;;7.03;2.08;;;;;;;14.91;86.47;100665.72;4805435;29;20105;-78
2023/08/05 01:16:39;;;;;;;4.65;1.65;;;;;;;14.94;86.60;100673.41;4793805;29;20050;-78
2023/08/05 01:19:45;;;;;;;6.97;2.35;;;;;;;14.92;86.60;100672.66;4804278;29;20054;-78
2023/08/05 01:22:53;;;;;;;9.70;1.83;;;;;;;14.88;86.95;100681.72;4804861;29;20175;-78
2023/08/05 01:25:57;;;;;;;7.43;1.65;;;;;;;14.88;86.79;100671.19;4804440;29;20157;-78
2023/08/05 01:29:04;;;;;;;5.25;1.83;;;;;;;14.81;86.59;100680.47;4804594;29;20100;-78
2023/08/05 01:32:07;;;;;;;5.30;2.15;;;;;;;14.76;86.67;100661.50;4802979;29;20428;-79
2023/08/05 01:35:11;;;;;;;4.55;1.77;;;;;;;14.73;87.01;100672.22;4804626;29;20057;-79
2023/08/05 01:38:15;;;;;;;4.75;1.88;;;;;;;14.71;87.07;100666.22;4793763;29;20046;-79
2023/08/05 01:41:18;;;;;;;6.28;2.10;;;;;;;14.71;87.46;100660.94;4804406;29;20130;-79
2023/08/05 01:44:22;;;;;;;5.63;1.50;;;;;;;14.71;87.29;100658.31;4805023;29;20054;-79
2023/08/05 01:47:25;;;;;;;7.80;1.80;;;;;;;14.70;86.91;100662.75;4805279;29;20116;-79
2023/08/05 01:50:28;;;;;;;8.32;2.13;;;;;;;14.66;87.04;100656.00;4804018;29;20417;-79
2023/08/05 01:53:31;;;;;;;9.45;2.53;;;;;;;14.63;87.08;100650.94;4804334;29;20081;-81
2023/08/05 01:56:35;;;;;;;7.53;1.98;;;;;;;14.59;87.48;100644.22;4806022;29;20069;-80
2023/08/05 01:59:38;;;;;;;5.55;2.33;;;;;;;14.56;87.81;100639.16;4806900;29;20046;-80
2023/08/05 02:02:42;;;;;;;5.32;2.13;;;;;;;14.54;87.38;100643.66;4811657;29;20124;-80
2023/08/05 02:05:46;;;;;;;11.30;2.03;;;;;;;14.51;87.50;100628.94;4825384;29;20112;-79
2023/08/05 02:08:49;;;;;;;6.10;2.45;;;;;;;14.52;87.82;100629.78;4825036;29;20069;-77
2023/08/05 02:11:52;;;;;;;7.38;2.05;;;;;;;14.57;87.74;100625.88;4825805;29;20424;-78
2023/08/05 02:14:55;;;;;;;5.68;2.72;;;;;;;14.60;87.49;100620.41;4825276;29;20520;-77
2023/08/05 02:17:59;;;;;;;7.05;2.60;;;;;;;14.56;87.57;100618.94;4826013;29;20045;-78
2023/08/05 02:21:02;;;;;;;7.10;2.25;;;;;;;14.55;87.77;100622.53;4825935;29;20520;-78
2023/08/05 02:24:09;;;;;;;9.00;2.47;;;;;;;14.56;88.05;100624.22;4814407;29;20062;-78
2023/08/05 02:27:13;;;;;;;5.45;1.92;;;;;;;14.55;87.88;100637.44;4824164;29;20129;-78
2023/08/05 02:30:16;;;;;;;7.57;2.50;;;;;;;14.53;88.35;100624.41;4824814;29;20416;-77
2023/08/05 02:33:19;;;;;;;12.15;3.70;;;;;;;14.47;88.99;100626.59;4823838;29;20615;-77
2023/08/05 02:36:22;;;;;;;8.20;3.40;;;;;;;14.51;89.36;100633.34;4814440;29;20056;-77
2023/08/05 02:39:26;;;;;;;7.68;3.72;;;;;;;14.52;89.74;100635.06;4824334;29;20065;-78
2023/08/05 02:42:29;;;;;;;8.30;4.70;;;;;;;14.51;89.99;100621.03;4825522;29;20053;-78
2023/08/05 02:45:34;;;;;;;8.10;3.78;;;;;;;14.50;90.29;100621.13;4824831;29;20053;-78
2023/08/05 02:48:38;;;;;;;4.80;2.90;;;;;;;14.52;89.92;100617.47;4825556;29;20093;-78
2023/08/05 02:51:44;;;;;;;4.97;2.42;;;;;;;14.47;88.96;100610.78;4825552;29;20177;-78
2023/08/05 02:54:47;;;;;;;3.35;1.88;;;;;;;14.45;88.77;100610.88;4824538;29;20436;-78
2023/08/05 02:57:50;;;;;;;5.82;2.55;;;;;;;14.47;89.09;100609.00;4824637;29;20523;-79
2023/08/05 03:00:54;;;;;;;11.68;3.55;;;;;;;13.83;94.82;100605.34;4824715;29;20050;-78
2023/08/05 03:03:57;;;;;;;9.82;3.47;;;;;;;14.09;93.91;100601.88;4824831;29;20069;-79
2023/08/05 03:07:00;;;;;;;8.45;4.32;;;;;;;14.24;92.91;100601.81;4824066;29;20108;-79
2023/08/05 03:10:04;;;;;;;10.95;4.30;;;;;;;14.17;93.23;100607.47;4813379;29;20053;-78
2023/08/05 03:13:07;;;;;;;32.45;4.88;;;;;;;13.88;94.26;100611.16;4825032;29;20117;-78
2023/08/05 03:16:12;;;;;;;8.15;4.30;;;;;;;13.78;96.13;100612.69;4823562;29;20050;-78
2023/08/05 03:19:22;;;;;;;9.70;4.47;;;;;;;14.10;94.07;100593.06;4813577;29;20052;-78
2023/08/05 03:22:27;;;;;;;10.15;4.45;;;;;;;14.22;92.73;100593.19;4823936;29;20088;-77
2023/08/05 03:25:31;;;;;;;5.38;2.10;;;;;;;14.25;90.36;100592.97;4824889;29;20527;-78
2023/08/05 03:28:39;;;;;;;7.45;2.80;;;;;;;14.27;90.09;100593.72;4824991;29;20130;-78
2023/08/05 03:31:44;;;;;;;7.10;3.17;;;;;;;14.29;90.39;100591.81;4823943;29;20119;-78
2023/08/05 03:34:49;;;;;;;8.35;3.83;;;;;;;14.29;90.46;100595.28;4824002;29;20123;-77
2023/08/05 03:37:53;;;;;;;5.53;3.63;;;;;;;14.30;90.91;100597.00;4824025;29;20081;-77
2023/08/05 03:41:00;;;;;;;8.57;3.80;;;;;;;14.32;90.99;100581.09;4823728;29;20056;-77
2023/08/05 03:44:04;;;;;;;8.45;4.22;;;;;;;14.33;91.02;100582.78;4823498;29;20470;-78
2023/08/05 03:47:08;;;;;;;9.52;4.25;;;;;;;14.35;90.80;100588.78;4824865;29;20053;-78
2023/08/05 03:50:11;;;;;;;6.28;5.00;;;;;;;14.37;90.86;100594.78;4823189;29;20579;-78
2023/08/05 03:53:16;;;;;;;7.90;3.88;;;;;;;14.39;90.89;100595.53;4823577;29;20049;-77
2023/08/05 03:56:22;;;;;;;7.72;4.57;;;;;;;14.43;90.74;100599.66;4823806;29;20057;-77
2023/08/05 03:59:28;;;;;;;7.97;4.60;;;;;;;14.30;90.71;100611.94;4813075;29;20061;-77
2023/08/05 04:02:32;;;;;;;8.57;4.45;;;;;;;14.35;90.30;100605.41;4823013;29;20149;-78
2023/08/05 04:05:35;;;;;;;10.63;4.45;;;;;;;14.31;90.71;100603.09;4823187;29;20117;-78
2023/08/05 04:08:39;;;;;;;11.45;4.97;;;;;;;14.30;90.91;100596.16;4822907;29;20053;-78
2023/08/05 04:11:48;;;;;;;11.82;4.93;;;;;;;14.27;91.22;100607.72;4831649;29;20104;-78
2023/08/05 04:14:53;;;;;;;11.40;5.50;;;;;;;14.25;91.50;100608.75;4822691;29;20049;-77
2023/08/05 04:17:59;;;;;;;9.30;4.40;;;;;;;14.27;91.69;100606.88;4821946;29;20085;-77
2023/08/05 04:21:04;;;;;;;6.75;4.57;;;;;;;14.23;92.04;100606.25;4822435;29;20054;-78
2023/08/05 04:24:09;;;;;;;9.02;5.85;;;;;;;14.23;91.70;100610.63;4822591;29;20073;-78
2023/08/05 04:27:12;;;;;;;7.63;4.60;;;;;;;14.19;91.51;100610.84;4823174;29;20061;-79
2023/08/05 04:30:15;;;;;;;;;;;;;;;14.13;90.77;100624.38;4823478;29;20073;-79
2023/08/05 04:33:18;;;;;;;8.23;3.10;;;;;;;14.08;89.69;100618.59;4823162;29;19996;-78
2023/08/05 04:36:21;;;;;;;7.15;3.42;;;;;;;14.08;89.96;100633.53;4822411;29;20085;-78
2023/08/05 04:39:28;;;;;;;7.22;3.22;;;;;;;14.09;89.50;100633.41;4822710;29;20473;-78
2023/08/05 04:42:34;;;;;;;5.43;2.80;;;;;;;14.09;89.53;100635.22;4823076;29;20107;-78
2023/08/05 04:45:37;;;;;;;5.47;3.20;;;;;;;14.13;89.68;100634.91;4822643;29;20052;-78
2023/08/05 04:48:40;;;;;;;6.97;3.25;;;;;;;14.16;89.40;100631.22;4823014;29;20054;-77
2023/08/05 04:51:43;;;;;;;6.55;2.90;;;;;;;14.20;89.26;100627.47;4822894;29;20069;-77
2023/08/05 04:54:47;;;;;;;7.07;3.28;;;;;;;14.23;89.05;100632.53;4823098;29;20409;-77
2023/08/05 04:57:54;;;;;;;7.25;3.45;;;;;;;14.27;89.03;100625.28;4822558;29;20562;-77
2023/08/05 05:00:58;;;;;;;7.65;3.53;;;;;;;14.25;89.18;100629.78;4822603;29;20107;-77
2023/08/05 05:04:01;;;;;;;8.57;4.05;;;;;;;14.26;89.54;100639.34;4822567;29;20155;-77
2023/08/05 05:07:05;;;;;;;6.78;3.03;;;;;;;14.23;89.50;100642.19;4821999;29;20092;-77
2023/08/05 05:10:08;;;;;;;;;;;;;;;14.21;88.98;100644.09;4823361;29;20044;-77
2023/08/05 05:13:12;;;;;;;6.30;3.47;;;;;;;14.23;88.76;100640.44;4822635;29;20383;-77
2023/08/05 05:16:15;;;;;;;12.70;5.30;;;;;;;14.24;89.26;100643.91;4822762;29;20475;-78
2023/08/05 05:19:19;;;;;;;9.13;5.88;;;;;;;14.26;89.97;100642.00;4822731;29;20128;-78
2023/08/05 05:22:25;;;;;;;12.32;5.43;;;;;;;14.24;90.96;100639.47;4822528;29;20578;-77
2023/08/05 05:25:35;;;;;;;10.88;6.93;;;;;;;13.92;93.91;100639.78;4822637;29;20077;-78
2023/08/05 05:28:38;;;;;;;11.88;7.03;;;;;;;14.22;92.63;100637.88;4832063;29;20522;-78
2023/08/05 05:31:42;;;;;;;11.32;7.35;;;;;;;14.34;91.87;100635.28;4824258;29;20118;-78
2023/08/05 05:34:45;;;;;;;19.00;10.15;;;;;;;14.35;91.70;100638.75;4825367;29;20052;-79
2023/08/05 05:37:48;;;;;;;14.55;8.57;;;;;;;14.44;91.66;100643.41;4825101;29;20122;-80
2023/08/05 05:40:54;;;;;;;8.23;7.00;;;;;;;14.57;91.56;100639.03;4825601;29;20138;-79
2023/08/05 05:43:58;;;;;;;9.77;6.63;;;;;;;14.64;92.49;100637.72;4825946;29;20420;-81
2023/08/05 05:47:01;;;;;;;7.28;4.10;;;;;;;14.74;91.41;100631.78;4824913;29;20127;-81
2023/08/05 05:50:05;;;;;;;6.85;3.95;;;;;;;14.78;91.28;100628.88;4825203;29;20053;-80
2023/08/05 05:53:08;;;;;;;6.43;3.63;;;;;;;14.77;89.97;100632.47;4825179;29;20057;-81
2023/08/05 05:56:15;;;;;;;4.85;3.45;;;;;;;14.79;90.29;100640.22;4825721;29;20566;-81
2023/08/05 05:59:21;;;;;;;5.50;3.45;;;;;;;14.90;89.89;100632.47;4824690;29;20131;-79
2023/08/05 06:02:24;;;;;;;6.28;3.97;;;;;;;14.94;89.08;100617.28;4834933;29;20100;-78
2023/08/05 06:05:27;;;;;;;10.60;4.50;;;;;;;15.01;89.09;100603.59;4825285;29;20081;-79
2023/08/05 06:08:31;;;;;;;7.28;3.70;;;;;;;15.06;88.71;100597.97;4825155;29;20417;-77
2023/08/05 06:11:36;;;;;;;8.45;4.25;;;;;;;15.04;88.63;100589.38;4824899;29;20116;-80
2023/08/05 06:14:39;;;;;;;22.27;8.02;;;;;;;15.08;88.96;100586.41;4824513;29;20520;-80
2023/08/05 06:17:45;;;;;;;55.13;19.15;;;;;;;15.09;90.26;100587.22;4813776;29;20099;-79
2023/08/05 06:20:49;;;;;;;32.20;16.05;;;;;;;15.26;89.70;100584.28;4824950;29;20473;-77
2023/08/05 06:23:53;;;;;;;9.60;4.95;;;;;;;15.33;88.96;100592.56;4825524;29;20057;-82
2023/08/05 06:26:56;;;;;;;10.15;6.25;;;;;;;15.34;89.03;100602.16;4813884;29;20049;-71
2023/08/05 06:30:00;;;;;;;7.68;4.30;;;;;;;15.42;88.48;100602.47;4824839;29;20172;-74
2023/08/05 06:33:03;;;;;;;9.85;5.50;;;;;;;15.51;88.06;100601.81;4824974;29;20094;-75
2023/08/05 06:36:06;;;;;;;8.30;5.10;;;;;;;15.53;88.73;100589.34;4823984;29;20053;-72
2023/08/05 06:39:10;;;;;;;7.28;5.05;;;;;;;15.55;89.22;100591.88;4824511;29;20126;-70
2023/08/05 06:42:13;;;;;;;7.45;5.43;;;;;;;15.51;88.88;100583.38;4824073;29;20123;-77
2023/08/05 06:45:19;;;;;;;8.85;5.78;;;;;;;15.54;89.30;100584.94;4813426;29;20056;-75
2023/08/05 06:48:23;;;;;;;11.27;6.20;;;;;;;15.62;89.16;100581.75;4824528;29;20049;-75
2023/08/05 06:51:27;;;;;;;9.30;6.35;;;;;;;15.70;89.11;100579.44;4824321;29;20084;-79
2023/08/05 06:54:30;;;;;;;9.43;6.68;;;;;;;15.77;88.82;100576.22;4824542;29;20088;-76
2023/08/05 06:57:34;;;;;;;8.52;5.95;;;;;;;15.88;88.29;100567.53;4824093;29;20127;-73
2023/08/05 07:00:37;;;;;;;10.13;6.65;;;;;;;15.96;88.54;100551.97;4824523;29;20053;-78
2023/08/05 07:03:42;;;;;;;10.80;8.25;;;;;;;16.07;88.28;100560.88;4822817;29;20165;-77
2023/08/05 07:06:45;;;;;;;15.50;8.27;;;;;;;16.17;87.99;100561.88;4823854;29;20515;-77
2023/08/05 07:09:48;;;;;;;9.25;8.30;;;;;;;16.17;87.60;100565.34;4822614;29;20077;-77
2023/08/05 07:13:01;;;;;;;9.98;8.90;;;;;;;16.22;87.32;100551.81;4823306;29;20057;-77
2023/08/05 07:16:07;;;;;;;10.13;9.10;;;;;;;16.28;87.96;100554.00;4824733;29;20188;-77
2023/08/05 07:19:11;;;;;;;10.38;9.02;;;;;;;16.34;87.69;100561.47;4824356;29;20119;-77
2023/08/05 07:22:15;;;;;;;11.07;9.52;;;;;;;16.39;87.66;100561.94;4824466;29;20188;-76
2023/08/05 07:25:19;;;;;;;13.18;10.07;;;;;;;16.46;87.54;100567.59;4823940;29;20050;-76
2023/08/05 07:28:22;;;;;;;14.80;11.43;;;;;;;16.50;86.38;100561.97;4823996;29;20107;-77
2023/08/05 07:31:26;;;;;;;14.48;12.13;;;;;;;16.53;85.47;100560.91;4824102;29;20053;-77
2023/08/05 07:34:32;;;;;;;13.80;11.93;;;;;;;16.43;84.64;100558.13;4813169;29;20514;-76
2023/08/05 07:37:36;;;;;;;14.82;13.32;;;;;;;16.43;85.07;100563.41;4812799;29;20053;-77
2023/08/05 07:40:40;;;;;;;16.17;13.32;;;;;;;16.57;84.20;100559.69;4823299;29;20050;-84
2023/08/05 07:47:48;;;;;;;12.60;11.30;;;;;;;16.86;84.06;100544.25;4823552;29;20090;-87
2023/08/05 07:50:59;;;;;;;13.98;12.48;;;;;;;16.78;82.89;100541.38;4823476;29;20050;-84
2023/08/05 07:54:15;;;;;;;18.65;13.45;;;;;;;16.47;84.20;100538.44;4822610;29;20054;-83
2023/08/05 07:57:18;;;;;;;14.30;12.82;;;;;;;16.76;83.27;100539.84;4823642;29;20420;-83
2023/08/05 08:00:23;;;;;;;13.27;11.88;;;;;;;16.67;83.00;100534.25;4824018;29;20103;-84
2023/08/05 08:03:29;;;;;;;14.63;13.27;;;;;;;16.64;83.10;100534.50;4823041;29;20085;-84
2023/08/05 08:06:38;;;;;;;17.48;14.20;;;;;;;16.52;83.62;100528.34;4823182;29;20049;-85
2023/08/05 08:09:59;;;;;;;15.52;13.63;;;;;;;16.76;82.60;100524.81;4811725;29;20565;-87
2023/08/05 08:13:06;;;;;;;14.48;12.13;;;;;;;16.87;82.42;100522.16;4823422;29;20524;-86
2023/08/05 08:16:18;;;;;;;16.30;12.30;;;;;;;17.01;81.76;100509.69;4811826;29;20430;-87
2023/08/05 08:19:24;;;;;;;12.18;10.85;;;;;;;17.14;81.82;100511.22;4820770;29;20052;-83
2023/08/05 08:22:32;;;;;;;13.98;12.00;;;;;;;17.23;80.62;100507.03;4823522;29;20056;-81
2023/08/05 08:25:37;;;;;;;14.80;11.80;;;;;;;17.23;80.21;100499.09;4822306;29;20057;-82
2023/08/05 08:28:42;;;;;;;15.02;11.93;;;;;;;17.31;80.31;100496.66;4822549;29;20046;-84
2023/08/05 08:31:49;;;;;;;14.95;11.48;;;;;;;17.39;79.90;100496.88;4822719;29;20053;-83
2023/08/05 08:34:54;;;;;;;12.52;11.30;;;;;;;17.42;79.02;100494.00;4822679;29;20061;-82
2023/08/05 08:38:57;;;;;;;12.07;10.75;;;;;;;17.47;77.51;100484.84;4823048;29;20527;-87
2023/08/05 08:42:00;;;;;;;12.07;10.35;;;;;;;17.44;76.91;100489.41;4804266;29;20048;-84
2023/08/05 08:45:06;;;;;;;11.98;10.88;;;;;;;17.27;77.58;100491.75;4804680;29;20054;-82
2023/08/05 08:48:11;;;;;;;11.85;9.88;;;;;;;17.35;77.04;100484.03;4825831;29;20053;-83
2023/08/05 08:51:17;;;;;;;12.75;10.45;;;;;;;17.49;76.86;100482.91;4822613;29;20155;-82
2023/08/05 08:54:26;;;;;;;13.43;10.73;;;;;;;17.65;76.51;100480.69;4822315;29;20132;-84
2023/08/05 08:57:31;;;;;;;11.32;9.88;;;;;;;17.63;77.03;100474.69;4822663;29;20056;-82
2023/08/05 09:00:36;;;;;;;11.50;10.38;;;;;;;17.62;76.86;100478.28;4822363;29;20160;-82
2023/08/05 09:03:42;;;;;;;12.38;9.80;;;;;;;17.71;76.34;100466.09;4810974;29;20085;-83
2023/08/05 09:06:47;;;;;;;11.30;10.10;;;;;;;17.74;74.73;100464.06;4807446;29;20163;-83
2023/08/05 09:09:50;;;;;;;11.23;9.57;;;;;;;17.78;75.04;100462.03;4807914;29;20527;-84
2023/08/05 09:12:57;;;;;;;12.30;9.00;;;;;;;17.66;75.63;100463.84;4806375;29;20129;-84
2023/08/05 09:16:01;;;;;;;11.52;9.55;;;;;;;17.57;75.85;100462.78;4805118;29;20056;-83
2023/08/05 09:19:04;;;;;;;11.98;9.85;;;;;;;17.49;75.55;100457.31;4788726;29;20118;-82
2023/08/05 09:22:14;;;;;;;10.15;9.15;;;;;;;17.46;75.83;100452.28;4789796;29;20066;-83
2023/08/05 09:25:17;;;;;;;11.00;8.95;;;;;;;17.52;75.73;100445.66;4788046;29;20152;-77
2023/08/05 09:28:31;;;;;;;10.60;8.40;;;;;;;17.64;75.96;100434.03;4788537;29;20058;-84
2023/08/05 09:31:34;;;;;;;10.43;9.43;;;;;;;17.66;77.27;100432.13;4787094;29;20050;-82
2023/08/05 09:34:39;;;;;;;11.52;7.68;;;;;;;17.83;75.29;100428.91;4788350;30;20518;-76
2023/08/05 09:37:47;;;;;;;8.82;7.63;;;;;;;17.96;74.67;100419.94;4788122;29;20364;-77
2023/08/05 09:40:52;;;;;;;9.68;7.53;;;;;;;18.01;73.25;100415.94;4792774;29;20109;-78
2023/08/05 09:43:58;;;;;;;8.52;6.88;;;;;;;18.09;74.12;100402.91;4812623;29;20113;-84
2023/08/05 09:47:04;;;;;;;7.93;6.72;;;;;;;18.16;73.54;100392.66;4807434;29;20049;-83
2023/08/05 09:50:11;;;;;;;8.57;7.78;;;;;;;18.37;75.01;100395.22;4807185;29;20054;-78
2023/08/05 09:53:21;;;;;;;10.52;7.60;;;;;;;18.51;74.84;100391.38;4807197;29;20126;-82
2023/08/05 09:56:26;;;;;;;8.18;7.32;;;;;;;18.67;73.96;100389.06;4807346;29;20084;-76
2023/08/05 09:59:29;;;;;;;8.02;7.03;;;;;;;18.76;72.71;100384.78;4806419;29;20164;-83
2023/08/05 10:02:35;;;;;;;7.25;5.97;;;;;;;18.84;72.44;100376.16;4806465;29;20188;-86
2023/08/05 10:06:04;;;;;;;7.18;6.47;;;;;;;18.98;71.01;100370.44;4806676;29;20674;-86
2023/08/05 10:09:08;;;;;;;7.35;6.50;;;;;;;18.96;71.02;100359.16;4805443;29;20133;-85
2023/08/05 10:12:13;;;;;;;8.20;6.30;;;;;;;18.96;69.74;100357.34;4806296;29;20143;-86
2023/08/05 10:15:43;;;;;;;6.72;5.75;;;;;;;19.01;69.14;100352.44;4806828;29;20099;-87
2023/08/05 10:18:48;;;;;;;6.70;5.55;;;;;;;19.21;68.84;100353.31;4807030;29;20104;-84
2023/08/05 10:21:51;;;;;;;6.13;5.35;;;;;;;19.38;67.59;100348.28;4807325;29;20066;-75
2023/08/05 10:24:59;;;;;;;6.28;4.95;;;;;;;19.49;67.44;100332.19;4807302;29;20111;-76
2023/08/05 10:28:02;;;;;;;5.90;5.30;;;;;;;19.58;67.38;100334.00;4807169;29;20171;-75
2023/08/05 10:31:24;;;;;;;8.38;5.30;;;;;;;19.71;66.32;100329.25;4807077;29;20100;-73
2023/08/05 10:34:27;;;;;;;5.50;4.22;;;;;;;19.80;63.47;100319.59;4807433;29;20061;-79
2023/08/05 10:37:50;;;;;;;4.60;3.83;;;;;;;19.93;63.55;100327.22;4807203;29;20533;-69
2023/08/05 10:41:02;;;;;;;7.07;4.00;;;;;;;20.01;60.18;100311.44;4807127;29;20133;-72
2023/08/05 10:44:06;;;;;;;4.05;3.20;;;;;;;19.93;59.06;100300.69;4807101;29;20069;-75
2023/08/05 10:47:11;;;;;;;4.60;2.92;;;;;;;19.90;57.47;100296.50;4795896;29;20108;-73
2023/08/05 10:50:15;;;;;;;4.28;3.03;;;;;;;20.02;58.71;100288.38;4807048;29;20163;-73
2023/08/05 10:53:21;;;;;;;3.20;2.38;;;;;;;20.20;56.80;100282.13;4806615;29;20057;-72
2023/08/05 10:56:32;;;;;;;4.35;2.95;;;;;;;20.30;57.36;100281.25;4795112;29;20057;-70
2023/08/05 10:59:56;;;;;;;4.18;2.50;;;;;;;20.55;55.87;100280.56;4794752;29;20050;-72
2023/08/05 11:03:23;;;;;;;5.47;2.87;;;;;;;20.52;55.36;100264.91;4795289;29;20093;-70
2023/08/05 11:06:27;;;;;;;4.72;2.60;;;;;;;20.50;55.29;100263.38;4807004;29;20059;-71
2023/08/05 11:09:44;;;;;;;3.28;2.47;;;;;;;20.53;55.08;100271.88;4806787;29;20096;-70
2023/08/05 11:12:54;;;;;;;3.95;2.30;;;;;;;20.51;54.38;100268.53;4806738;29;20081;-71
2023/08/05 11:16:05;;;;;;;4.40;2.50;;;;;;;20.52;55.19;100262.25;4806325;29;20152;-70
2023/08/05 11:19:10;;;;;;;3.88;2.25;;;;;;;20.38;55.33;100257.41;4806383;29;20049;-70
2023/08/05 11:22:12;;;;;;;3.30;2.50;;;;;;;20.24;54.79;100250.81;4806502;29;20057;-69
2023/08/05 11:25:17;;;;;;;4.30;2.25;;;;;;;20.26;55.01;100261.28;4806123;29;20085;-68
2023/08/05 11:28:23;;;;;;;3.40;2.20;;;;;;;20.26;55.77;100255.97;4805163;29;20049;-65
2023/08/05 11:31:28;;;;;;;5.10;1.90;;;;;;;20.30;55.46;100238.78;4806268;29;20574;-74
2023/08/05 11:34:32;;;;;;;3.40;2.55;;;;;;;20.32;54.98;100239.44;4805954;29;20422;-73
2023/08/05 11:37:38;;;;;;;3.00;2.10;;;;;;;20.36;55.18;100233.69;4805245;29;20057;-74
2023/08/05 11:40:47;;;;;;;3.63;1.98;;;;;;;20.47;55.07;100237.09;4804968;29;20128;-74
2023/08/05 11:43:50;;;;;;;4.95;1.98;;;;;;;20.53;54.89;100229.41;4805668;29;20053;-73
2023/08/05 11:46:53;;;;;;;3.55;1.95;;;;;;;20.62;55.14;100223.19;4805730;29;20151;-74
2023/08/05 11:49:57;;;;;;;2.92;2.20;;;;;;;20.76;55.58;100215.66;4805654;29;20049;-74
2023/08/05 11:53:05;;;;;;;4.38;2.40;;;;;;;20.86;55.07;100214.56;4805846;29;20073;-74
2023/08/05 11:56:08;;;;;;;4.03;2.35;;;;;;;20.92;54.71;100206.97;4805030;29;20064;-73
2023/08/05 11:59:13;;;;;;;3.42;2.45;;;;;;;20.88;55.26;100207.28;4805435;29;20555;-73
2023/08/05 12:02:18;;;;;;;3.80;1.98;;;;;;;20.93;54.77;100209.50;4805444;29;20091;-73
2023/08/05 12:05:24;;;;;;;3.63;2.05;;;;;;;20.84;54.29;100216.56;4805445;29;20106;-73
2023/08/05 12:08:39;;;;;;;3.05;1.67;;;;;;;20.69;53.68;100219.91;4803477;29;20626;-73
2023/08/05 12:11:46;;;;;;;3.22;1.60;;;;;;;20.56;54.26;100221.13;4805097;29;20050;-73
2023/08/05 12:14:49;;;;;;;4.32;1.67;;;;;;;20.49;54.64;100222.69;4815156;29;20111;-73
2023/08/05 12:17:55;;;;;;;3.05;1.98;;;;;;;20.49;55.29;100209.41;4805177;29;20421;-74
2023/08/05 12:20:59;;;;;;;3.58;1.98;;;;;;;20.41;55.83;100204.00;4805150;29;20116;-73
2023/08/05 12:24:02;;;;;;;3.47;1.80;;;;;;;20.40;56.50;100200.53;4804641;29;20459;-74
2023/08/05 12:27:05;;;;;;;5.00;1.73;;;;;;;20.39;56.79;100198.03;4804479;29;20528;-73
2023/08/05 12:30:12;;;;;;;3.75;1.90;;;;;;;20.25;56.68;100182.63;4804951;29;20176;-72
2023/08/05 12:33:17;;;;;;;3.15;1.73;;;;;;;20.36;56.56;100179.75;4806892;29;20058;-72
2023/08/05 12:36:20;;;;;;;4.07;1.58;;;;;;;20.27;56.77;100180.66;4804839;29;20089;-74
2023/08/05 12:39:23;;;;;;;3.10;2.00;;;;;;;20.24;57.41;100178.31;4804461;29;20152;-75
2023/08/05 12:42:26;;;;;;;6.10;2.47;;;;;;;20.19;57.57;100168.94;4803550;29;20062;-82
2023/08/05 12:45:30;;;;;;;3.95;2.10;;;;;;;20.19;57.56;100174.25;4804422;29;20058;-82
2023/08/05 12:48:33;;;;;;;2.90;1.73;;;;;;;20.18;57.58;100166.47;4804368;29;20045;-82
2023/08/05 12:51:36;;;;;;;3.42;1.85;;;;;;;20.25;57.41;100162.22;4804564;29;20111;-83
2023/08/05 12:54:39;;;;;;;3.20;1.75;;;;;;;20.34;57.53;100149.84;4804429;29;20123;-82
2023/08/05 12:57:43;;;;;;;3.05;1.65;;;;;;;20.55;57.31;100142.44;4804602;29;20108;-80
2023/08/05 13:00:46;;;;;;;3.25;2.10;;;;;;;20.66;56.77;100128.88;4793175;29;20099;-81
2023/08/05 13:03:49;;;;;;;4.70;2.10;;;;;;;20.65;56.69;100129.88;4817097;29;20085;-80
2023/08/05 13:06:53;;;;;;;4.20;2.05;;;;;;;20.69;56.69;100117.13;4821441;29;20053;-80
2023/08/05 13:09:56;;;;;;;5.63;1.65;;;;;;;20.69;56.93;100111.00;4822367;29;20066;-80
2023/08/05 13:12:59;;;;;;;4.57;2.28;;;;;;;21.22;56.78;100101.97;4822791;29;20065;-80
2023/08/05 13:16:03;;;;;;;3.60;1.80;;;;;;;21.67;54.97;100100.88;4822441;29;20500;-81
2023/08/05 13:19:09;;;;;;;3.22;1.65;;;;;;;21.84;53.84;100083.94;4822625;29;20412;-80
2023/08/05 13:22:12;;;;;;;3.65;1.83;;;;;;;22.21;52.11;100099.47;4822499;29;20085;-80
2023/08/05 13:25:16;;;;;;;2.83;1.20;;;;;;;22.12;50.11;100087.13;4822601;29;20115;-81
2023/08/05 13:28:19;;;;;;;3.25;1.23;;;;;;;22.47;52.08;100070.00;4822625;29;20089;-77
2023/08/05 13:31:25;;;;;;;2.85;1.00;;;;;;;23.19;49.18;100066.50;4822725;29;20496;-77
2023/08/05 13:34:28;;;;;;;2.42;1.00;;;;;;;23.38;47.82;100066.06;4822666;29;20049;-76
2023/08/05 13:37:33;;;;;;;5.18;0.98;;;;;;;23.88;46.52;100055.97;4822650;29;20111;-72
2023/08/05 13:40:37;;;;;;;2.40;0.85;;;;;;;23.72;46.75;100051.59;4822997;29;20054;-75
2023/08/05 13:43:42;;;;;;;1.90;0.85;;;;;;;23.95;46.02;100048.09;4822581;29;20115;-77
2023/08/05 13:46:45;;;;;;;3.25;1.17;;;;;;;23.51;46.79;100038.00;4822727;29;20146;-74
2023/08/05 13:49:50;;;;;;;2.90;1.20;;;;;;;24.07;45.92;100044.00;4822578;29;20115;-77
2023/08/05 13:52:53;;;;;;;2.95;1.08;;;;;;;24.52;45.88;100034.25;4824778;29;20106;-72
2023/08/05 13:55:57;;;;;;;2.85;1.00;;;;;;;24.08;44.59;100026.94;4826035;29;20122;-76
2023/08/05 13:59:00;;;;;;;2.00;0.82;;;;;;;24.21;43.71;100031.69;4825481;29;20040;-74
2023/08/05 14:02:04;;;;;;;2.17;0.98;;;;;;;24.56;43.38;100028.34;4825941;29;20084;-73
2023/08/05 14:05:08;;;;;;;3.35;1.00;;;;;;;24.53;43.55;100028.72;4825577;29;20535;-80
2023/08/05 14:08:12;;;;;;;3.10;1.25;;;;;;;25.09;42.40;100020.22;4825464;29;20692;-76
2023/08/05 14:11:15;;;;;;;1.50;0.50;;;;;;;25.86;40.62;100008.97;4825420;29;20125;-75
2023/08/05 14:14:19;;;;;;;2.22;0.90;;;;;;;26.57;38.91;100003.56;4825246;29;20049;-77
2023/08/05 14:17:22;;;;;;;1.80;0.82;;;;;;;27.40;37.88;99992.78;4825354;29;20520;-72
2023/08/05 14:20:25;;;;;;;3.20;1.20;;;;;;;28.23;36.58;99982.53;4825468;29;20099;-77